Time;durP1;ratioP1;P1;durP2;ratioP2;P2;SDS_P1;SDS_P2;PMS_P1;PMS_P2;Temp;Humidity;BMP_temperature;BMP_pressure;BME280_temperature;BME280_humidity;BME280_pressure;Samples;Min_cycle;Max_cycle;Signal;HPM_P1;HPM_P2
2021/05/21 00:01:06;;;;;;;4.10;1.10;;;;;;;;;;5012317;28;20061;-63
2021/05/21 00:03:52;;;;;;;3.97;1.02;;;;;;;;;;4997806;28;20473;-63
2021/05/21 00:06:37;;;;;;;4.70;1.20;;;;;;;;;;4989198;28;20129;-63
2021/05/21 00:09:22;;;;;;;3.40;1.13;;;;;;;;;;5012287;28;20255;-63
2021/05/21 00:12:08;;;;;;;2.38;1.08;;;;;;;;;;5012208;28;20512;-63
2021/05/21 00:14:56;;;;;;;1.70;1.10;;;;;;;;;;4993917;28;20054;-62
2021/05/21 00:17:41;;;;;;;4.65;0.98;;;;;;;;;;4992627;28;20537;-62
2021/05/21 00:20:27;;;;;;;2.15;1.33;;;;;;;;;;4992836;28;20050;-62
2021/05/21 00:23:12;;;;;;;1.25;1.05;;;;;;;;;;4995087;28;20045;-62
2021/05/21 00:25:57;;;;;;;1.77;0.93;;;;;;;;;;5012314;28;20050;-62
2021/05/21 00:28:43;;;;;;;1.98;1.15;;;;;;;;;;5012223;28;20046;-62
2021/05/21 00:31:28;;;;;;;3.55;1.08;;;;;;;;;;5011841;28;20397;-63
2021/05/21 00:34:13;;;;;;;3.50;1.10;;;;;;;;;;5003962;28;20046;-62
2021/05/21 00:36:59;;;;;;;2.55;1.17;;;;;;;;;;4992550;28;20047;-63
2021/05/21 00:39:44;;;;;;;2.58;1.00;;;;;;;;;;4992060;28;20046;-63
2021/05/21 00:42:30;;;;;;;2.17;0.88;;;;;;;;;;4977920;28;20449;-63
2021/05/21 00:45:15;;;;;;;2.78;1.35;;;;;;;;;;5005788;28;20057;-63
2021/05/21 00:48:01;;;;;;;2.88;1.15;;;;;;;;;;5011895;28;20050;-63
2021/05/21 00:50:48;;;;;;;7.60;1.20;;;;;;;;;;5011887;28;20097;-63
2021/05/21 00:53:33;;;;;;;3.13;0.85;;;;;;;;;;5011899;28;20128;-63
2021/05/21 00:56:18;;;;;;;5.10;1.10;;;;;;;;;;4991500;28;20057;-63
2021/05/21 00:59:03;;;;;;;2.13;0.90;;;;;;;;;;4992325;28;20050;-63
2021/05/21 01:01:49;;;;;;;1.75;1.15;;;;;;;;;;4992470;28;20050;-62
2021/05/21 01:04:35;;;;;;;1.38;0.57;;;;;;;;;;4993235;28;20556;-62
2021/05/21 01:07:20;;;;;;;3.25;0.88;;;;;;;;;;5012033;28;20073;-63
2021/05/21 01:10:06;;;;;;;4.03;1.25;;;;;;;;;;5016122;28;20128;-64
2021/05/21 01:12:51;;;;;;;3.00;0.88;;;;;;;;;;5015980;28;20046;-63
2021/05/21 01:15:38;;;;;;;3.17;0.85;;;;;;;;;;5010218;28;20132;-62
2021/05/21 01:18:25;;;;;;;1.80;0.60;;;;;;;;;;4999160;28;20050;-62
2021/05/21 01:21:10;;;;;;;2.53;0.73;;;;;;;;;;4999833;28;20085;-64
2021/05/21 01:23:55;;;;;;;2.22;0.80;;;;;;;;;;4999816;28;20484;-64
2021/05/21 01:26:41;;;;;;;7.80;1.45;;;;;;;;;;5000885;28;20493;-64
2021/05/21 01:29:27;;;;;;;5.05;1.08;;;;;;;;;;5000207;28;20061;-63
2021/05/21 01:32:12;;;;;;;1.65;0.75;;;;;;;;;;5000660;28;20331;-64
2021/05/21 01:34:58;;;;;;;6.57;0.77;;;;;;;;;;4997477;28;20140;-62
2021/05/21 01:37:44;;;;;;;1.73;0.80;;;;;;;;;;5000919;28;20082;-62
2021/05/21 01:40:29;;;;;;;4.57;0.93;;;;;;;;;;4995401;28;20054;-63
2021/05/21 01:43:14;;;;;;;11.18;1.40;;;;;;;;;;4995446;28;20042;-63
2021/05/21 01:46:00;;;;;;;2.95;0.60;;;;;;;;;;4997293;28;20050;-63
2021/05/21 01:48:46;;;;;;;2.85;0.98;;;;;;;;;;5000266;28;20128;-62
2021/05/21 01:51:31;;;;;;;2.63;1.20;;;;;;;;;;5014738;28;20050;-63
2021/05/21 01:54:17;;;;;;;8.63;1.55;;;;;;;;;;5015470;28;20054;-64
2021/05/21 01:57:02;;;;;;;2.90;0.93;;;;;;;;;;5010909;28;20094;-63
2021/05/21 01:59:47;;;;;;;2.75;1.30;;;;;;;;;;4998618;28;20066;-63
2021/05/21 02:02:33;;;;;;;3.67;1.00;;;;;;;;;;5000143;28;20050;-62
2021/05/21 02:05:19;;;;;;;5.35;0.82;;;;;;;;;;4993542;28;20106;-62
2021/05/21 02:08:04;;;;;;;4.20;0.88;;;;;;;;;;5008193;28;20412;-63
2021/05/21 02:10:49;;;;;;;5.90;0.95;;;;;;;;;;5014167;28;20587;-63
2021/05/21 02:13:35;;;;;;;4.25;1.30;;;;;;;;;;5014421;28;20054;-63
2021/05/21 02:16:20;;;;;;;3.92;1.10;;;;;;;;;;5014683;28;20049;-63
2021/05/21 02:19:05;;;;;;;3.97;1.30;;;;;;;;;;4994815;28;20576;-63
2021/05/21 02:21:51;;;;;;;9.38;2.10;;;;;;;;;;4975180;28;20050;-63
2021/05/21 02:24:36;;;;;;;11.32;3.03;;;;;;;;;;5012890;28;20563;-62
2021/05/21 02:27:23;;;;;;;10.50;2.20;;;;;;;;;;5013210;28;20180;-63
2021/05/21 02:30:12;;;;;;;15.93;3.42;;;;;;;;;;5013835;28;20393;-63
2021/05/21 02:32:57;;;;;;;12.50;2.40;;;;;;;;;;5011789;28;20046;-63
2021/05/21 02:35:42;;;;;;;16.90;3.33;;;;;;;;;;4994562;28;20442;-63
2021/05/21 02:38:28;;;;;;;13.75;3.00;;;;;;;;;;4994275;28;20133;-62
2021/05/21 02:41:13;;;;;;;17.92;2.80;;;;;;;;;;4994261;28;20390;-62
2021/05/21 02:43:59;;;;;;;12.60;2.60;;;;;;;;;;5001838;28;20404;-62
2021/05/21 02:46:44;;;;;;;16.20;3.50;;;;;;;;;;4999289;28;20496;-62
2021/05/21 02:49:31;;;;;;;15.75;3.25;;;;;;;;;;4994175;28;20046;-62
2021/05/21 02:52:17;;;;;;;14.93;3.28;;;;;;;;;;4994196;28;20051;-62
2021/05/21 02:55:03;;;;;;;12.98;3.47;;;;;;;;;;5007565;28;20042;-62
2021/05/21 02:57:48;;;;;;;12.98;2.65;;;;;;;;;;5013838;28;20053;-63
2021/05/21 03:00:34;;;;;;;11.68;2.70;;;;;;;;;;5012645;28;20046;-63
2021/05/21 03:03:19;;;;;;;16.88;3.20;;;;;;;;;;5012335;28;20104;-63
2021/05/21 03:06:05;;;;;;;15.00;2.65;;;;;;;;;;4994416;28;20154;-62
2021/05/21 03:08:50;;;;;;;15.77;3.40;;;;;;;;;;4993948;28;20090;-63
2021/05/21 03:11:39;;;;;;;19.88;2.83;;;;;;;;;;4993537;28;20057;-63
2021/05/21 03:14:24;;;;;;;13.68;3.40;;;;;;;;;;4995026;28;20046;-62
2021/05/21 03:17:10;;;;;;;14.98;3.00;;;;;;;;;;4994282;28;20516;-62
2021/05/21 03:19:55;;;;;;;12.93;4.05;;;;;;;;;;5012925;28;20054;-62
2021/05/21 03:22:41;;;;;;;14.48;3.40;;;;;;;;;;5013321;28;20042;-62
2021/05/21 03:25:26;;;;;;;13.25;3.47;;;;;;;;;;4989726;28;20046;-61
2021/05/21 03:28:12;;;;;;;14.10;2.83;;;;;;;;;;5006755;28;20041;-61
2021/05/21 03:30:57;;;;;;;13.65;2.72;;;;;;;;;;5012935;28;20065;-61
2021/05/21 03:33:43;;;;;;;16.83;3.28;;;;;;;;;;5013112;28;20136;-61
2021/05/21 03:36:28;;;;;;;13.52;2.55;;;;;;;;;;4998638;28;20527;-62
2021/05/21 03:39:14;;;;;;;15.23;2.47;;;;;;;;;;4993827;28;20053;-63
2021/05/21 03:41:59;;;;;;;13.32;3.03;;;;;;;;;;4998084;28;20050;-62
2021/05/21 03:44:45;;;;;;;14.38;2.60;;;;;;;;;;4997694;28;20046;-63
2021/05/21 03:47:30;;;;;;;18.20;3.08;;;;;;;;;;5015875;28;20113;-64
2021/05/21 03:50:18;;;;;;;18.15;3.30;;;;;;;;;;5015590;28;20053;-62
2021/05/21 03:53:04;;;;;;;14.95;3.03;;;;;;;;;;5002171;28;20053;-62
2021/05/21 03:55:50;;;;;;;16.20;2.60;;;;;;;;;;5012840;28;20079;-61
2021/05/21 03:58:35;;;;;;;14.63;2.65;;;;;;;;;;4997302;28;20046;-64
2021/05/21 04:01:20;;;;;;;16.70;3.55;;;;;;;;;;4997167;28;20540;-63
2021/05/21 04:04:06;;;;;;;18.20;4.82;;;;;;;;;;4997727;28;20046;-63
2021/05/21 04:06:52;;;;;;;14.18;2.97;;;;;;;;;;5006829;28;20513;-62
2021/05/21 04:09:37;;;;;;;23.48;4.43;;;;;;;;;;5017299;28;20084;-63
2021/05/21 04:12:25;;;;;;;20.00;3.47;;;;;;;;;;5015120;28;20064;-62
2021/05/21 04:15:11;;;;;;;19.00;3.53;;;;;;;;;;5012386;28;20389;-62
2021/05/21 04:17:56;;;;;;;16.70;3.17;;;;;;;;;;4997504;28;20069;-62
2021/05/21 04:20:41;;;;;;;12.07;3.25;;;;;;;;;;4993054;28;20054;-62
2021/05/21 04:23:27;;;;;;;23.08;4.82;;;;;;;;;;5012253;28;20492;-62
2021/05/21 04:26:12;;;;;;;12.20;3.08;;;;;;;;;;5012306;28;20616;-61
2021/05/21 04:28:57;;;;;;;21.40;3.10;;;;;;;;;;4973135;28;20497;-62
2021/05/21 04:31:44;;;;;;;15.32;3.70;;;;;;;;;;4973288;28;20054;-62
2021/05/21 04:34:29;;;;;;;15.75;4.10;;;;;;;;;;4973155;28;20073;-62
2021/05/21 04:37:15;;;;;;;20.20;3.78;;;;;;;;;;4979968;28;20131;-63
2021/05/21 04:40:00;;;;;;;17.63;3.75;;;;;;;;;;5011895;28;20488;-63
2021/05/21 04:42:45;;;;;;;14.23;3.03;;;;;;;;;;5012091;28;20404;-63
2021/05/21 04:45:31;;;;;;;17.40;3.63;;;;;;;;;;5012071;28;20096;-63
2021/05/21 04:48:17;;;;;;;15.60;3.80;;;;;;;;;;5003054;28;20054;-62
2021/05/21 04:51:02;;;;;;;19.42;3.53;;;;;;;;;;4998168;28;20073;-62
2021/05/21 04:53:48;;;;;;;23.30;4.47;;;;;;;;;;4999706;28;20121;-62
2021/05/21 04:56:33;;;;;;;15.10;3.40;;;;;;;;;;4996443;28;20505;-63
2021/05/21 04:59:19;;;;;;;13.93;3.17;;;;;;;;;;5010334;28;20081;-63
2021/05/21 05:02:04;;;;;;;17.95;3.83;;;;;;;;;;5016299;28;20049;-63
2021/05/21 05:04:50;;;;;;;13.05;3.60;;;;;;;;;;5016989;28;20042;-62
2021/05/21 05:07:35;;;;;;;14.77;2.85;;;;;;;;;;5015760;28;20092;-62
2021/05/21 05:10:20;;;;;;;12.32;3.17;;;;;;;;;;5013226;28;20050;-61
2021/05/21 05:13:06;;;;;;;15.23;3.58;;;;;;;;;;5015408;28;20042;-63
2021/05/21 05:15:51;;;;;;;18.98;3.47;;;;;;;;;;5021017;28;20046;-62
2021/05/21 05:18:37;;;;;;;21.85;4.32;;;;;;;;;;5018402;28;20543;-62
2021/05/21 05:21:22;;;;;;;23.17;4.03;;;;;;;;;;5001616;28;20039;-64
2021/05/21 05:24:14;;;;;;;17.48;3.83;;;;;;;;;;5002488;28;20058;-63
2021/05/21 05:26:59;;;;;;;17.15;3.97;;;;;;;;;;5001712;28;20050;-64
2021/05/21 05:29:48;;;;;;;20.00;3.20;;;;;;;;;;4996880;28;20058;-62
2021/05/21 05:32:33;;;;;;;21.25;4.88;;;;;;;;;;4995682;28;20051;-61
2021/05/21 05:35:18;;;;;;;24.10;3.97;;;;;;;;;;5002203;28;20043;-63
2021/05/21 05:38:04;;;;;;;21.23;5.10;;;;;;;;;;5001682;28;20411;-62
2021/05/21 05:40:50;;;;;;;20.58;4.13;;;;;;;;;;4996754;28;20082;-62
2021/05/21 05:43:35;;;;;;;17.13;3.25;;;;;;;;;;4995394;28;20038;-62
2021/05/21 05:46:20;;;;;;;17.63;3.67;;;;;;;;;;5003792;28;20136;-62
2021/05/21 05:49:05;;;;;;;18.48;4.05;;;;;;;;;;5013405;28;20046;-62
2021/05/21 05:51:51;;;;;;;15.48;4.50;;;;;;;;;;5013248;28;20056;-61
2021/05/21 05:54:36;;;;;;;16.23;3.78;;;;;;;;;;5014901;28;20057;-62
2021/05/21 05:57:21;;;;;;;19.45;4.15;;;;;;;;;;5013284;28;20050;-61
2021/05/21 06:00:07;;;;;;;18.30;3.60;;;;;;;;;;5014440;28;20076;-60
2021/05/21 06:02:54;;;;;;;22.58;4.18;;;;;;;;;;5012650;28;20039;-61
2021/05/21 06:05:40;;;;;;;22.42;3.92;;;;;;;;;;5014613;28;20050;-61
2021/05/21 06:08:25;;;;;;;19.05;4.03;;;;;;;;;;5014669;28;20050;-62
2021/05/21 06:11:10;;;;;;;17.17;3.92;;;;;;;;;;5014187;28;20393;-62
2021/05/21 06:13:56;;;;;;;23.50;3.60;;;;;;;;;;5005601;28;20039;-62
2021/05/21 06:16:43;;;;;;;24.75;4.60;;;;;;;;;;4994824;28;20046;-62
2021/05/21 06:19:28;;;;;;;25.92;3.97;;;;;;;;;;4994541;28;20091;-62
2021/05/21 06:22:14;;;;;;;20.13;4.25;;;;;;;;;;4994792;28;20133;-62
2021/05/21 06:25:06;;;;;;;18.65;3.70;;;;;;;;;;4995665;28;20043;-62
2021/05/21 06:27:51;;;;;;;14.60;4.10;;;;;;;;;;4996169;28;20073;-62
2021/05/21 06:30:37;;;;;;;15.90;3.60;;;;;;;;;;4999321;28;20050;-60
2021/05/21 06:33:22;;;;;;;15.98;2.90;;;;;;;;;;5014113;28;20054;-61
2021/05/21 06:36:07;;;;;;;20.15;4.05;;;;;;;;;;5013939;28;20512;-61
2021/05/21 06:38:52;;;;;;;22.40;4.70;;;;;;;;;;5012532;28;20105;-61
2021/05/21 06:41:38;;;;;;;15.38;3.33;;;;;;;;;;5013635;28;20045;-62
2021/05/21 06:44:23;;;;;;;15.48;3.45;;;;;;;;;;5012117;28;20050;-62
2021/05/21 06:47:09;;;;;;;15.20;2.97;;;;;;;;;;5013979;28;20193;-62
2021/05/21 06:49:54;;;;;;;16.65;4.40;;;;;;;;;;5011946;28;20050;-62
2021/05/21 06:52:40;;;;;;;20.90;4.30;;;;;;;;;;5013651;28;20101;-62
2021/05/21 06:55:25;;;;;;;16.42;3.22;;;;;;;;;;5013831;28;20045;-62
2021/05/21 06:58:11;;;;;;;12.60;3.58;;;;;;;;;;5012103;28;20053;-61
2021/05/21 07:00:59;;;;;;;14.63;3.33;;;;;;;;;;5011512;28;20052;-61
2021/05/21 07:03:45;;;;;;;13.63;3.90;;;;;;;;;;5013470;28;20050;-62
2021/05/21 07:06:31;;;;;;;14.35;4.10;;;;;;;;;;5013526;28;20049;-61
2021/05/21 07:09:16;;;;;;;16.05;3.50;;;;;;;;;;5011419;28;20045;-62
2021/05/21 07:12:02;;;;;;;14.50;3.38;;;;;;;;;;5012183;28;20109;-61
2021/05/21 07:14:47;;;;;;;13.85;3.30;;;;;;;;;;4997251;28;20054;-62
2021/05/21 07:17:33;;;;;;;16.90;3.17;;;;;;;;;;4978917;28;20054;-62
2021/05/21 07:20:19;;;;;;;22.90;4.05;;;;;;;;;;4984669;28;20045;-62
2021/05/21 07:23:05;;;;;;;14.75;3.60;;;;;;;;;;4998432;28;20048;-62
2021/05/21 07:25:51;;;;;;;15.45;3.72;;;;;;;;;;4973933;28;20125;-61
2021/05/21 07:28:36;;;;;;;20.48;3.38;;;;;;;;;;4980901;28;20045;-62
2021/05/21 07:31:26;;;;;;;18.45;4.47;;;;;;;;;;5012807;28;20064;-62
2021/05/21 07:34:12;;;;;;;19.08;3.53;;;;;;;;;;4997935;28;20069;-62
2021/05/21 07:36:59;;;;;;;13.68;3.72;;;;;;;;;;5013007;28;20046;-61
2021/05/21 07:39:44;;;;;;;16.85;3.70;;;;;;;;;;5002672;28;20507;-62
2021/05/21 07:42:30;;;;;;;14.90;3.70;;;;;;;;;;5000435;28;20046;-62
2021/05/21 07:45:15;;;;;;;11.70;2.90;;;;;;;;;;4982880;28;20046;-62
2021/05/21 07:48:00;;;;;;;18.58;3.28;;;;;;;;;;5012232;28;20133;-61
2021/05/21 07:50:47;;;;;;;12.35;3.22;;;;;;;;;;5005415;28;20054;-62
2021/05/21 07:53:33;;;;;;;13.68;3.33;;;;;;;;;;5003536;28;20045;-62
2021/05/21 07:56:19;;;;;;;14.52;3.28;;;;;;;;;;4984902;28;20056;-61
2021/05/21 07:59:04;;;;;;;14.02;3.50;;;;;;;;;;4992399;28;20047;-61
2021/05/21 08:01:49;;;;;;;13.93;2.75;;;;;;;;;;4996318;28;20049;-61
2021/05/21 08:04:36;;;;;;;15.43;2.70;;;;;;;;;;4973115;28;20049;-61
2021/05/21 08:07:22;;;;;;;16.23;3.30;;;;;;;;;;4970390;28;20046;-61
2021/05/21 08:10:08;;;;;;;16.80;4.22;;;;;;;;;;4983380;28;20058;-61
2021/05/21 08:12:55;;;;;;;11.40;2.90;;;;;;;;;;4981803;28;20034;-61
2021/05/21 08:15:40;;;;;;;11.63;3.22;;;;;;;;;;4983038;28;20043;-61
2021/05/21 08:18:26;;;;;;;10.98;2.70;;;;;;;;;;4966427;28;20038;-61
2021/05/21 08:21:11;;;;;;;19.33;3.03;;;;;;;;;;4973053;28;20413;-61
2021/05/21 08:24:00;;;;;;;11.77;3.40;;;;;;;;;;4973212;28;20045;-61
2021/05/21 08:26:45;;;;;;;13.10;2.58;;;;;;;;;;4949291;28;20509;-61
2021/05/21 08:29:31;;;;;;;11.43;2.95;;;;;;;;;;5012008;28;20042;-61
2021/05/21 08:32:16;;;;;;;12.57;3.00;;;;;;;;;;5012256;28;20078;-61
2021/05/21 08:35:01;;;;;;;14.25;2.80;;;;;;;;;;4997067;28;20072;-61
2021/05/21 08:37:47;;;;;;;11.90;3.08;;;;;;;;;;5004215;28;20053;-61
2021/05/21 08:40:38;;;;;;;13.40;2.80;;;;;;;;;;4992290;28;20042;-61
2021/05/21 08:43:24;;;;;;;17.67;2.90;;;;;;;;;;4997620;28;20123;-62
2021/05/21 08:46:10;;;;;;;16.25;3.95;;;;;;;;;;4947241;28;20047;-61
2021/05/21 08:49:02;;;;;;;10.77;3.08;;;;;;;;;;5000049;28;20074;-60
2021/05/21 08:51:47;;;;;;;10.80;2.92;;;;;;;;;;4955884;28;20050;-60
2021/05/21 08:54:35;;;;;;;12.38;2.53;;;;;;;;;;4972871;28;20409;-61
2021/05/21 08:57:20;;;;;;;11.93;2.83;;;;;;;;;;4976157;28;20046;-62
2021/05/21 09:00:08;;;;;;;13.80;2.70;;;;;;;;;;4983558;28;20046;-62
2021/05/21 09:02:54;;;;;;;15.35;3.15;;;;;;;;;;4983048;28;20090;-63
2021/05/21 09:05:39;;;;;;;13.43;3.00;;;;;;;;;;4978774;28;20507;-61
2021/05/21 09:08:35;;;;;;;14.30;3.85;;;;;;;;;;4959482;28;20050;-63
2021/05/21 09:11:24;;;;;;;10.50;2.58;;;;;;;;;;4982218;28;20135;-62
2021/05/21 09:14:10;;;;;;;10.75;3.28;;;;;;;;;;4966350;28;20062;-62
2021/05/21 09:16:58;;;;;;;9.73;2.67;;;;;;;;;;4970600;28;20413;-62
2021/05/21 09:19:46;;;;;;;15.10;3.30;;;;;;;;;;4989686;28;20049;-62
2021/05/21 09:22:32;;;;;;;14.00;2.47;;;;;;;;;;4990598;28;20500;-62
2021/05/21 09:25:36;;;;;;;11.00;2.50;;;;;;;;;;4981271;28;20038;-62
2021/05/21 09:28:35;;;;;;;10.38;2.65;;;;;;;;;;4980996;28;20497;-62
2021/05/21 09:31:22;;;;;;;13.55;3.15;;;;;;;;;;4983309;28;20078;-63
2021/05/21 09:34:07;;;;;;;10.80;3.38;;;;;;;;;;4985579;28;20046;-63
2021/05/21 09:36:55;;;;;;;6.82;2.25;;;;;;;;;;4993390;28;20046;-63
2021/05/21 09:40:02;;;;;;;14.27;2.75;;;;;;;;;;4995649;28;20068;-62
2021/05/21 09:42:59;;;;;;;20.38;3.20;;;;;;;;;;4998728;28;20053;-63
2021/05/21 09:45:49;;;;;;;14.10;2.38;;;;;;;;;;5015192;28;20054;-63
2021/05/21 09:48:43;;;;;;;9.98;2.30;;;;;;;;;;4997434;28;20065;-62
2021/05/21 09:51:33;;;;;;;10.55;2.67;;;;;;;;;;5000381;28;20069;-63
2021/05/21 09:54:25;;;;;;;13.98;2.13;;;;;;;;;;4981335;28;20064;-63
2021/05/21 09:57:12;;;;;;;9.10;2.30;;;;;;;;;;4995350;28;20061;-62
2021/05/21 09:59:57;;;;;;;10.43;2.10;;;;;;;;;;4995054;28;20050;-62
2021/05/21 10:02:43;;;;;;;12.32;2.80;;;;;;;;;;4996653;28;20047;-63
2021/05/21 10:05:28;;;;;;;14.55;2.70;;;;;;;;;;4995204;28;20098;-62
2021/05/21 10:08:14;;;;;;;11.48;2.90;;;;;;;;;;4995077;28;20054;-61
2021/05/21 10:11:00;;;;;;;10.85;3.13;;;;;;;;;;4998690;28;20064;-61
2021/05/21 10:13:46;;;;;;;9.55;2.15;;;;;;;;;;5014580;28;20184;-61
2021/05/21 10:16:32;;;;;;;15.45;2.83;;;;;;;;;;5014547;28;20475;-61
2021/05/21 10:19:17;;;;;;;9.43;2.30;;;;;;;;;;5000033;28;20066;-61
2021/05/21 10:22:07;;;;;;;6.93;1.67;;;;;;;;;;5009717;28;20047;-62
2021/05/21 10:24:54;;;;;;;10.30;2.35;;;;;;;;;;5021199;28;20104;-63
2021/05/21 10:27:40;;;;;;;7.93;1.77;;;;;;;;;;5007134;28;20046;-63
2021/05/21 10:30:26;;;;;;;6.25;1.55;;;;;;;;;;5021574;28;20484;-63
2021/05/21 10:33:20;;;;;;;5.57;1.85;;;;;;;;;;5001021;28;20046;-62
2021/05/21 10:36:24;;;;;;;10.38;2.25;;;;;;;;;;4994740;28;20057;-62
2021/05/21 10:39:28;;;;;;;10.40;1.80;;;;;;;;;;4994244;28;20046;-62
2021/05/21 10:42:36;;;;;;;12.15;2.25;;;;;;;;;;5002096;28;20046;-63
2021/05/21 10:45:53;;;;;;;13.45;2.08;;;;;;;;;;5013922;28;20509;-62
2021/05/21 10:48:39;;;;;;;11.55;2.38;;;;;;;;;;5013016;28;20037;-62
2021/05/21 10:51:25;;;;;;;14.40;4.07;;;;;;;;;;4998997;28;20049;-63
2021/05/21 10:54:26;;;;;;;10.30;2.70;;;;;;;;;;4995093;28;20046;-62
2021/05/21 10:57:23;;;;;;;10.07;2.67;;;;;;;;;;4994239;28;20065;-62
2021/05/21 11:00:08;;;;;;;12.07;2.40;;;;;;;;;;4994798;28;20054;-62
2021/05/21 11:02:54;;;;;;;9.15;2.70;;;;;;;;;;4993855;28;20042;-62
2021/05/21 11:05:39;;;;;;;7.03;2.20;;;;;;;;;;5030376;23;20046;-64
2021/05/21 11:08:28;;;;;;;13.00;2.67;;;;;;;;;;4994004;28;20084;-64
2021/05/21 11:11:14;;;;;;;14.18;2.80;;;;;;;;;;4964736;28;20449;-65
2021/05/21 11:14:04;;;;;;;13.02;3.00;;;;;;;;;;4975423;28;20082;-65
2021/05/21 11:17:12;;;;;;;13.88;2.42;;;;;;;;;;4974327;28;20046;-65
2021/05/21 11:19:58;;;;;;;7.95;2.80;;;;;;;;;;4991795;28;20046;-65
2021/05/21 11:22:43;;;;;;;8.95;2.85;;;;;;;;;;4993946;28;20480;-64
2021/05/21 11:25:29;;;;;;;12.63;3.17;;;;;;;;;;4974876;28;20501;-65
2021/05/21 11:28:14;;;;;;;12.05;2.35;;;;;;;;;;4974615;28;20052;-65
2021/05/21 11:30:59;;;;;;;6.75;2.05;;;;;;;;;;4990523;28;20496;-65
2021/05/21 11:33:46;;;;;;;9.57;3.40;;;;;;;;;;4991255;28;20050;-65
2021/05/21 11:36:36;;;;;;;10.68;2.65;;;;;;;;;;4977426;28;20249;-65
2021/05/21 11:39:24;;;;;;;10.68;2.15;;;;;;;;;;4979099;28;20065;-65
2021/05/21 11:42:10;;;;;;;11.40;2.45;;;;;;;;;;4991979;28;20053;-65
2021/05/21 11:44:56;;;;;;;9.10;2.20;;;;;;;;;;4959555;28;20042;-64
2021/05/21 11:47:41;;;;;;;11.85;2.40;;;;;;;;;;4973937;28;20039;-64
2021/05/21 11:50:29;;;;;;;9.25;2.47;;;;;;;;;;4968580;28;20034;-64
2021/05/21 11:53:15;;;;;;;11.05;3.17;;;;;;;;;;4978804;28;20046;-65
2021/05/21 11:56:00;;;;;;;11.05;2.40;;;;;;;;;;4982859;28;20047;-64
2021/05/21 11:58:45;;;;;;;9.93;2.33;;;;;;;;;;4961213;28;20493;-64
2021/05/21 12:01:31;;;;;;;7.22;2.08;;;;;;;;;;4973486;28;20057;-64
2021/05/21 12:04:16;;;;;;;7.38;2.80;;;;;;;;;;4961822;28;20096;-64
2021/05/21 12:07:01;;;;;;;13.38;2.25;;;;;;;;;;4992262;28;20053;-65
2021/05/21 12:10:00;;;;;;;10.30;2.55;;;;;;;;;;4992456;28;20500;-66
2021/05/21 12:12:46;;;;;;;9.10;1.75;;;;;;;;;;4970571;28;20514;-65
2021/05/21 12:15:31;;;;;;;6.43;2.47;;;;;;;;;;4992668;28;20057;-65
2021/05/21 12:18:16;;;;;;;12.13;2.20;;;;;;;;;;4975830;28;20042;-65
2021/05/21 12:21:02;;;;;;;8.82;2.13;;;;;;;;;;4990374;28;20509;-66
2021/05/21 12:23:50;;;;;;;6.07;1.77;;;;;;;;;;4977451;28;20050;-64
2021/05/21 12:26:36;;;;;;;8.63;1.63;;;;;;;;;;4977745;28;20117;-64
2021/05/21 12:29:22;;;;;;;8.23;1.80;;;;;;;;;;4972930;28;20054;-64
2021/05/21 12:32:09;;;;;;;9.52;2.20;;;;;;;;;;4972902;28;20101;-64
2021/05/21 12:34:55;;;;;;;8.82;1.83;;;;;;;;;;4977350;28;20433;-64
2021/05/21 12:37:49;;;;;;;10.77;2.20;;;;;;;;;;4990897;28;20492;-64
2021/05/21 12:40:35;;;;;;;8.55;1.73;;;;;;;;;;4986802;28;20054;-65
2021/05/21 12:43:20;;;;;;;6.72;1.92;;;;;;;;;;4973802;28;20130;-65
2021/05/21 12:46:09;;;;;;;10.98;2.55;;;;;;;;;;4972918;28;20515;-65
2021/05/21 12:48:54;;;;;;;7.43;1.98;;;;;;;;;;4973821;28;20058;-65
2021/05/21 12:51:40;;;;;;;7.57;2.05;;;;;;;;;;4945650;28;20050;-64
2021/05/21 12:54:27;;;;;;;9.60;1.98;;;;;;;;;;4976902;28;20038;-64
2021/05/21 12:57:19;;;;;;;13.13;1.80;;;;;;;;;;4981861;28;20050;-64
2021/05/21 13:00:05;;;;;;;7.75;2.40;;;;;;;;;;4980446;28;20045;-65
2021/05/21 13:02:51;;;;;;;8.52;2.22;;;;;;;;;;4983650;28;20047;-65
2021/05/21 13:05:40;;;;;;;12.75;1.92;;;;;;;;;;4985910;28;20042;-65
2021/05/21 13:08:25;;;;;;;8.95;1.98;;;;;;;;;;4987613;28;20497;-66
2021/05/21 13:11:11;;;;;;;5.75;1.38;;;;;;;;;;4979842;28;20051;-66
2021/05/21 13:14:00;;;;;;;5.85;1.60;;;;;;;;;;4972099;28;20038;-65
2021/05/21 13:16:50;;;;;;;13.50;2.10;;;;;;;;;;4986205;28;20098;-65
2021/05/21 13:19:36;;;;;;;7.70;1.50;;;;;;;;;;4995801;28;20047;-65
2021/05/21 13:22:22;;;;;;;8.23;1.98;;;;;;;;;;4980895;28;20038;-65
2021/05/21 13:25:08;;;;;;;8.80;1.50;;;;;;;;;;4995279;28;20511;-66
2021/05/21 13:27:53;;;;;;;8.93;1.65;;;;;;;;;;4963692;28;20035;-66
2021/05/21 13:30:39;;;;;;;10.80;2.10;;;;;;;;;;4960278;28;20061;-65
2021/05/21 13:33:24;;;;;;;11.23;2.50;;;;;;;;;;4977879;28;20406;-66
2021/05/21 13:36:10;;;;;;;21.60;8.25;;;;;;;;;;4977635;28;20496;-65
2021/05/21 13:38:55;;;;;;;10.60;1.73;;;;;;;;;;4975577;28;20039;-66
2021/05/21 13:41:40;;;;;;;14.90;2.55;;;;;;;;;;4961374;28;20136;-65
2021/05/21 13:44:25;;;;;;;5.90;1.90;;;;;;;;;;4961851;28;20061;-65
2021/05/21 13:47:10;;;;;;;4.93;1.30;;;;;;;;;;4975813;28;20041;-65
2021/05/21 13:49:56;;;;;;;7.82;2.00;;;;;;;;;;4957647;28;20070;-65
2021/05/21 13:52:41;;;;;;;7.70;1.55;;;;;;;;;;4975739;28;20489;-65
2021/05/21 13:55:26;;;;;;;5.05;1.45;;;;;;;;;;4962561;28;20487;-65
2021/05/21 13:58:12;;;;;;;11.90;2.15;;;;;;;;;;4994612;28;20045;-65
2021/05/21 14:00:57;;;;;;;7.35;2.35;;;;;;;;;;4952955;28;20121;-65
2021/05/21 14:03:43;;;;;;;7.03;1.80;;;;;;;;;;4960480;28;20516;-64
2021/05/21 14:06:28;;;;;;;6.35;1.10;;;;;;;;;;4976637;28;20043;-65
2021/05/21 14:09:14;;;;;;;7.78;1.30;;;;;;;;;;4947551;28;20054;-65
2021/05/21 14:12:00;;;;;;;6.18;1.30;;;;;;;;;;4994275;28;20113;-65
2021/05/21 14:14:46;;;;;;;4.15;0.90;;;;;;;;;;4965579;28;20046;-64
2021/05/21 14:17:31;;;;;;;5.97;1.17;;;;;;;;;;4960831;28;20066;-65
2021/05/21 14:20:17;;;;;;;4.82;1.00;;;;;;;;;;4973546;28;20047;-65
2021/05/21 14:23:04;;;;;;;7.60;1.52;;;;;;;;;;4974223;28;20449;-65
2021/05/21 14:25:49;;;;;;;8.70;1.60;;;;;;;;;;4964194;28;20548;-64
2021/05/21 14:28:34;;;;;;;10.15;1.92;;;;;;;;;;4975263;28;20047;-64
2021/05/21 14:31:20;;;;;;;5.78;1.48;;;;;;;;;;4989521;28;20092;-64
2021/05/21 14:34:07;;;;;;;6.70;1.48;;;;;;;;;;4994551;28;20046;-64
2021/05/21 14:36:53;;;;;;;11.52;2.13;;;;;;;;;;4979726;28;20045;-65
2021/05/21 14:39:38;;;;;;;10.35;1.50;;;;;;;;;;4992938;28;20043;-65
2021/05/21 14:42:24;;;;;;;7.72;1.98;;;;;;;;;;4994092;28;20043;-64
2021/05/21 14:45:10;;;;;;;9.00;2.25;;;;;;;;;;4962102;28;20138;-65
2021/05/21 14:47:56;;;;;;;10.10;1.63;;;;;;;;;;4979821;28;20538;-64
2021/05/21 14:50:41;;;;;;;7.80;2.13;;;;;;;;;;4975328;28;20051;-64
2021/05/21 14:53:26;;;;;;;8.10;2.00;;;;;;;;;;4968472;28;20508;-65
2021/05/21 14:56:12;;;;;;;8.48;1.88;;;;;;;;;;4990288;28;20066;-65
2021/05/21 14:58:57;;;;;;;10.30;2.53;;;;;;;;;;4982754;28;20039;-65
2021/05/21 15:01:43;;;;;;;7.72;2.25;;;;;;;;;;4974042;28;20121;-65
2021/05/21 15:04:35;;;;;;;14.32;2.15;;;;;;;;;;4960637;28;20106;-64
2021/05/21 15:07:20;;;;;;;9.45;1.83;;;;;;;;;;4982320;28;20106;-64
2021/05/21 15:10:06;;;;;;;8.82;2.50;;;;;;;;;;4939625;28;20050;-64
2021/05/21 15:12:57;;;;;;;14.07;2.53;;;;;;;;;;4967270;28;20415;-64
2021/05/21 15:21:42;;;;;;;15.35;3.15;;;;;;;;;;4973718;28;20047;-65
2021/05/21 15:24:33;;;;;;;13.00;2.63;;;;;;;;;;4982358;28;20440;-65
2021/05/21 15:27:19;;;;;;;12.05;2.10;;;;;;;;;;4947332;28;20501;-64
2021/05/21 15:30:05;;;;;;;11.90;2.22;;;;;;;;;;4979172;28;20054;-65
2021/05/21 15:32:50;;;;;;;11.48;2.03;;;;;;;;;;4982802;28;20054;-65
2021/05/21 15:35:35;;;;;;;8.15;1.88;;;;;;;;;;4957044;28;20185;-64
2021/05/21 15:38:21;;;;;;;13.05;2.38;;;;;;;;;;4974749;28;20050;-65
2021/05/21 15:41:11;;;;;;;11.05;2.17;;;;;;;;;;4972004;28;20049;-66
2021/05/21 15:47:01;;;;;;;9.07;1.80;;;;;;;;;;4987261;28;20055;-65
2021/05/21 15:52:59;;;;;;;10.95;2.40;;;;;;;;;;4958348;28;20073;-65
2021/05/21 15:58:55;;;;;;;10.07;1.50;;;;;;;;;;4973983;28;20047;-65
2021/05/21 16:01:41;;;;;;;15.75;2.53;;;;;;;;;;4958911;28;20055;-65
2021/05/21 16:04:26;;;;;;;6.32;1.85;;;;;;;;;;4965315;28;20043;-65
2021/05/21 16:07:11;;;;;;;13.93;1.90;;;;;;;;;;4977897;28;20039;-65
2021/05/21 16:09:58;;;;;;;7.90;1.40;;;;;;;;;;4977522;28;20042;-66
2021/05/21 16:12:43;;;;;;;11.63;1.70;;;;;;;;;;4992698;28;20133;-65
2021/05/21 16:15:29;;;;;;;14.18;2.10;;;;;;;;;;4980009;28;20047;-65
2021/05/21 16:18:16;;;;;;;7.68;1.40;;;;;;;;;;4972839;28;20478;-64
2021/05/21 16:21:02;;;;;;;11.85;1.65;;;;;;;;;;4973557;28;20047;-64
2021/05/21 16:23:47;;;;;;;9.38;1.88;;;;;;;;;;4991814;28;20038;-64
2021/05/21 16:26:33;;;;;;;10.07;1.42;;;;;;;;;;4991090;28;20042;-65
2021/05/21 16:29:19;;;;;;;10.60;1.60;;;;;;;;;;4955647;28;20046;-65
2021/05/21 16:32:05;;;;;;;9.15;2.00;;;;;;;;;;4972484;28;20085;-64
2021/05/21 16:34:50;;;;;;;11.23;1.90;;;;;;;;;;4983280;28;20056;-65
2021/05/21 16:37:37;;;;;;;10.25;1.70;;;;;;;;;;4957807;28;20050;-65
2021/05/21 16:40:23;;;;;;;11.07;1.85;;;;;;;;;;4980137;28;20046;-64
2021/05/21 16:43:09;;;;;;;9.00;1.40;;;;;;;;;;4960280;28;20051;-64